Time;durP1;ratioP1;P1;durP2;ratioP2;P2;SDS_P1;SDS_P2;PMS_P1;PMS_P2;Temp;Humidity;BMP_temperature;BMP_pressure;BME280_temperature;BME280_humidity;BME280_pressure;Samples;Min_cycle;Max_cycle;Signal;HPM_P1;HPM_P2
2022/06/25 00:02:48;;;;;;;;;;;;;;;27.27;25.69;99852.78;5356574;32;34925;-76
2022/06/25 00:05:50;;;;;;;;;;;;;;;27.01;26.28;99847.72;5368940;32;35527;-76
2022/06/25 00:08:52;;;;;;;;;;;;;;;27.06;26.25;99828.34;5363338;32;34700;-76
2022/06/25 00:15:15;;;;;;;;;;;;;;;27.01;26.61;99828.84;5348604;32;44553;-77
2022/06/25 00:18:17;;;;;;;;;;;;;;;26.10;28.27;99845.62;5356459;32;35023;-76
2022/06/25 00:21:19;;;;;;;;;;;;;;;26.97;26.97;99852.62;5370475;32;35214;-76
2022/06/25 00:24:21;;;;;;;;;;;;;;;26.47;27.75;99850.41;5358924;32;35414;-75
2022/06/25 00:27:23;;;;;;;;;;;;;;;26.86;27.27;99844.97;5363913;32;34980;-74
2022/06/25 00:30:24;;;;;;;;;;;;;;;26.91;27.28;99853.34;5371926;32;35286;-74
2022/06/25 00:33:26;;;;;;;;;;;;;;;26.94;27.14;99857.53;5359771;32;34829;-77
2022/06/25 00:36:28;;;;;;;;;;;;;;;26.98;27.05;99851.63;5377178;32;35621;-76
2022/06/25 00:39:30;;;;;;;;;;;;;;;27.11;26.92;99853.72;5356765;32;34928;-77
2022/06/25 00:42:32;;;;;;;;;;;;;;;26.93;27.08;99848.63;5376880;32;34993;-76
2022/06/25 00:45:34;;;;;;;;;;;;;;;27.03;27.00;99856.47;5362760;32;34869;-75
2022/06/25 00:48:36;;;;;;;;;;;;;;;26.85;27.30;99840.56;5362781;32;34831;-74
2022/06/25 00:51:38;;;;;;;;;;;;;;;26.36;28.08;99848.06;5374361;32;45943;-76
2022/06/25 00:54:42;;;;;;;;;;;;;;;26.75;27.55;99852.59;5360351;32;34830;-78
2022/06/25 00:57:44;;;;;;;;;;;;;;;26.20;28.63;99855.16;5378072;32;34072;-76
2022/06/25 01:00:46;;;;;;;;;;;;;;;25.89;29.01;99865.88;5362113;32;34993;-75
2022/06/25 01:03:48;;;;;;;;;;;;;;;25.50;32.92;99865.69;5375176;32;34173;-78
2022/06/25 01:06:50;;;;;;;;;;;;;;;25.98;35.98;99872.06;5360012;32;34932;-76
2022/06/25 01:09:52;;;;;;;;;;;;;;;24.81;41.14;99862.41;5360250;32;32985;-78
2022/06/25 01:12:54;;;;;;;;;;;;;;;25.00;42.79;99868.50;5374605;32;34697;-76
2022/06/25 01:15:56;;;;;;;;;;;;;;;25.10;47.02;99870.03;5333129;32;36239;-75
2022/06/25 01:18:58;;;;;;;;;;;;;;;24.42;45.19;99863.94;5376944;32;34949;-75
2022/06/25 01:22:07;;;;;;;;;;;;;;;25.64;43.78;99864.19;5359381;32;34666;-76
2022/06/25 01:25:10;;;;;;;;;;;;;;;25.65;40.00;99865.88;5374390;32;44832;-79
2022/06/25 01:28:11;;;;;;;;;;;;;;;24.94;41.77;99874.53;5363447;32;36065;-77
2022/06/25 01:31:13;;;;;;;;;;;;;;;23.68;48.25;99876.91;5362746;32;35056;-76
2022/06/25 01:34:15;;;;;;;;;;;;;;;23.58;53.43;99870.78;5377761;32;34723;-75
2022/06/25 01:37:17;;;;;;;;;;;;;;;23.98;54.09;99856.81;5362118;32;33555;-76
2022/06/25 01:40:19;;;;;;;;;;;;;;;24.43;54.72;99871.84;5378344;32;34357;-77
2022/06/25 01:43:21;;;;;;;;;;;;;;;24.40;53.33;99882.06;5361519;32;35214;-75
2022/06/25 01:46:23;;;;;;;;;;;;;;;24.27;50.95;99885.16;5375552;32;35056;-78
2022/06/25 01:49:25;;;;;;;;;;;;;;;24.21;49.02;99883.94;5362956;32;36376;-77
2022/06/25 01:52:27;;;;;;;;;;;;;;;23.38;52.97;99888.00;5361162;32;34911;-76
2022/06/25 01:55:29;;;;;;;;;;;;;;;24.19;51.62;99888.63;5379711;32;34502;-77
2022/06/25 01:58:31;;;;;;;;;;;;;;;22.93;55.98;99889.78;5360395;32;35301;-75
2022/06/25 02:01:33;;;;;;;;;;;;;;;22.85;60.38;99886.13;5377997;32;34895;-76
2022/06/25 02:04:35;;;;;;;;;;;;;;;22.95;60.09;99884.28;5363101;32;34580;-76
2022/06/25 02:07:37;;;;;;;;;;;;;;;23.28;61.67;99881.91;5371696;32;43803;-75
2022/06/25 02:10:39;;;;;;;;;;;;;;;23.22;61.36;99881.53;5365503;32;35219;-74
2022/06/25 02:13:41;;;;;;;;;;;;;;;23.43;57.30;99875.00;5353527;32;34669;-76
2022/06/25 02:16:43;;;;;;;;;;;;;;;24.61;51.58;99887.88;5350696;32;34807;-77
2022/06/25 02:19:46;;;;;;;;;;;;;;;24.75;48.40;99876.50;5358118;32;34984;-78
2022/06/25 02:22:47;;;;;;;;;;;;;;;23.35;51.63;99891.03;5376339;32;36431;-76
2022/06/25 02:25:50;;;;;;;;;;;;;;;22.89;54.10;99884.88;5362758;32;35488;-77
2022/06/25 02:28:52;;;;;;;;;;;;;;;22.64;54.91;99879.19;5372078;32;34894;-76
2022/06/25 02:31:54;;;;;;;;;;;;;;;22.96;56.60;99877.91;5363008;32;34758;-77
2022/06/25 02:34:57;;;;;;;;;;;;;;;23.59;52.48;99869.78;5360061;32;34713;-77
2022/06/25 02:37:58;;;;;;;;;;;;;;;24.50;51.37;99889.00;5376274;32;34890;-76
2022/06/25 02:41:00;;;;;;;;;;;;;;;24.50;50.42;99880.09;5362712;32;32865;-76
2022/06/25 02:44:02;;;;;;;;;;;;;;;23.66;51.92;99884.28;5378076;32;34883;-77
2022/06/25 02:47:04;;;;;;;;;;;;;;;23.38;52.07;99871.94;5360896;32;34255;-75
2022/06/25 02:50:07;;;;;;;;;;;;;;;23.06;53.80;99876.00;5373653;32;44744;-75
2022/06/25 02:53:09;;;;;;;;;;;;;;;23.42;52.05;99862.59;5366671;32;36783;-76
2022/06/25 02:59:32;;;;;;;;;;;;;;;24.68;47.26;99867.41;5377535;32;35498;-76
2022/06/25 03:02:34;;;;;;;;;;;;;;;24.31;47.92;99884.69;5355268;32;34654;-76
2022/06/25 03:05:36;;;;;;;;;;;;;;;23.93;47.72;99893.19;5373870;32;34742;-76
2022/06/25 03:08:38;;;;;;;;;;;;;;;22.58;54.58;99893.19;5358615;32;45744;-76
2022/06/25 03:11:40;;;;;;;;;;;;;;;23.95;51.90;99891.16;5363900;32;35617;-74
2022/06/25 03:14:42;;;;;;;;;;;;;;;24.30;50.14;99880.31;5356199;32;34832;-76
2022/06/25 03:17:43;;;;;;;;;;;;;;;23.96;50.16;99896.41;5347847;32;34869;-76
2022/06/25 03:20:45;;;;;;;;;;;;;;;23.39;51.63;99895.94;5372480;32;35637;-75
2022/06/25 03:23:47;;;;;;;;;;;;;;;23.62;51.29;99888.25;5360875;32;34057;-76
2022/06/25 03:26:49;;;;;;;;;;;;;;;23.15;54.75;99895.69;5374372;32;34412;-75
2022/06/25 03:29:51;;;;;;;;;;;;;;;24.38;51.43;99887.59;5361478;32;35206;-76
2022/06/25 03:32:53;;;;;;;;;;;;;;;24.36;50.20;99886.09;5363494;32;35310;-75
2022/06/25 03:35:55;;;;;;;;;;;;;;;23.57;51.98;99892.38;5375752;32;35559;-75
2022/06/25 03:38:57;;;;;;;;;;;;;;;24.07;51.48;99895.28;5358853;32;35670;-75
2022/06/25 03:41:58;;;;;;;;;;;;;;;22.90;53.08;99897.28;5377170;32;34954;-76
2022/06/25 03:45:00;;;;;;;;;;;;;;;23.29;51.21;99883.59;5360417;32;35263;-74
2022/06/25 03:48:02;;;;;;;;;;;;;;;24.71;48.13;99885.88;5374199;32;34967;-74
2022/06/25 03:51:04;;;;;;;;;;;;;;;24.58;47.87;99878.28;5362229;32;34326;-75
2022/06/25 03:54:06;;;;;;;;;;;;;;;24.71;49.39;99888.56;5363778;32;35270;-75
2022/06/25 03:57:08;;;;;;;;;;;;;;;23.86;51.07;99897.50;5372283;32;45128;-74
2022/06/25 04:00:10;;;;;;;;;;;;;;;24.74;49.46;99890.94;5344061;32;35234;-76
2022/06/25 04:03:13;;;;;;;;;;;;;;;23.61;51.78;99894.63;5374915;32;34591;-75
2022/06/25 04:06:16;;;;;;;;;;;;;;;23.83;50.14;99892.44;5357770;32;35868;-75
2022/06/25 04:09:18;;;;;;;;;;;;;;;23.59;49.54;99904.66;5375729;32;34349;-76
2022/06/25 04:12:19;;;;;;;;;;;;;;;24.18;48.06;99902.22;5356574;32;35878;-75
2022/06/25 04:15:21;;;;;;;;;;;;;;;24.77;47.59;99903.19;5338697;32;34757;-73
2022/06/25 04:18:23;;;;;;;;;;;;;;;24.88;47.85;99912.81;5373751;32;34962;-73
2022/06/25 04:21:25;;;;;;;;;;;;;;;23.00;49.34;99922.19;5356453;32;35609;-74
2022/06/25 04:24:27;;;;;;;;;;;;;;;23.12;49.31;99915.63;5377893;32;34967;-76
2022/06/25 04:30:49;;;;;;;;;;;;;;;23.65;45.97;99908.56;5369635;32;34693;-74
2022/06/25 04:33:51;;;;;;;;;;;;;;;24.50;44.27;99912.34;5365379;32;34619;-76
2022/06/25 04:36:53;;;;;;;;;;;;;;;25.32;41.60;99911.59;5360681;32;34979;-76
2022/06/25 04:39:55;;;;;;;;;;;;;;;24.35;45.33;99917.47;5375332;32;35638;-74
2022/06/25 04:42:57;;;;;;;;;;;;;;;24.43;45.09;99920.19;5359505;32;34800;-74
2022/06/25 04:45:59;;;;;;;;;;;;;;;25.47;42.24;99919.00;5377122;32;35028;-76
2022/06/25 04:49:01;;;;;;;;;;;;;;;25.57;41.04;99925.91;5359304;32;34989;-74
2022/06/25 04:52:03;;;;;;;;;;;;;;;23.78;44.30;99917.91;5370390;32;34737;-74
2022/06/25 04:55:05;;;;;;;;;;;;;;;25.11;40.79;99921.97;5367665;32;35682;-76
2022/06/25 04:58:07;;;;;;;;;;;;;;;25.76;39.37;99929.28;5357696;32;44512;-77
2022/06/25 05:01:09;;;;;;;;;;;;;;;24.83;42.10;99937.47;5375249;32;34370;-76
2022/06/25 05:04:11;;;;;;;;;;;;;;;25.36;36.85;99937.12;5359230;32;34888;-74
2022/06/25 05:07:13;;;;;;;;;;;;;;;25.47;35.58;99932.44;5370033;32;35374;-76
2022/06/25 05:10:15;;;;;;;;;;;;;;;25.93;34.08;99939.87;5358185;32;34433;-74
2022/06/25 05:13:17;;;;;;;;;;;;;;;26.17;33.39;99924.72;5360753;32;34654;-76
2022/06/25 05:16:19;;;;;;;;;;;;;;;26.74;31.71;99932.63;5337630;32;34672;-75
2022/06/25 05:19:21;;;;;;;;;;;;;;;26.19;31.67;99936.97;5358354;32;34362;-74
2022/06/25 05:22:23;;;;;;;;;;;;;;;28.20;28.00;99929.91;5370201;32;34770;-75
2022/06/25 05:25:25;;;;;;;;;;;;;;;29.03;27.45;99926.09;5359188;32;34935;-75
2022/06/25 05:28:27;;;;;;;;;;;;;;;29.11;28.53;99932.25;5376565;32;35032;-75
2022/06/25 05:31:29;;;;;;;;;;;;;;;28.20;30.98;99935.31;5360786;32;35497;-75
2022/06/25 05:34:31;;;;;;;;;;;;;;;29.63;29.29;99939.25;5370388;32;34896;-76
2022/06/25 05:37:33;;;;;;;;;;;;;;;29.06;30.47;99931.97;5368603;32;34871;-76
2022/06/25 05:40:36;;;;;;;;;;;;;;;28.82;31.13;99934.97;5359760;32;32766;-76
2022/06/25 05:43:38;;;;;;;;;;;;;;;29.23;30.74;99945.25;5376157;32;43792;-75
2022/06/25 05:46:40;;;;;;;;;;;;;;;30.95;27.56;99939.31;5362847;32;35039;-77
2022/06/25 05:49:42;;;;;;;;;;;;;;;31.05;26.64;99941.69;5377801;32;34740;-77
2022/06/25 05:52:44;;;;;;;;;;;;;;;28.49;30.67;99948.88;5361317;32;34970;-75
2022/06/25 05:55:46;;;;;;;;;;;;;;;28.36;30.84;99940.59;5367752;32;35620;-76
2022/06/25 05:58:48;;;;;;;;;;;;;;;28.85;29.57;99940.84;5370527;32;34704;-76
2022/06/25 06:01:50;;;;;;;;;;;;;;;29.37;28.98;99942.53;5359914;32;35123;-75
2022/06/25 06:04:55;;;;;;;;;;;;;;;30.42;27.44;99938.22;5378286;32;34149;-75
2022/06/25 06:07:56;;;;;;;;;;;;;;;29.73;28.57;99941.63;5359194;32;34565;-75
2022/06/25 06:10:58;;;;;;;;;;;;;;;30.07;28.03;99940.00;5376307;32;34848;-75
2022/06/25 06:14:00;;;;;;;;;;;;;;;32.57;24.07;99943.66;5347937;32;34654;-75
2022/06/25 06:17:02;;;;;;;;;;;;;;;31.89;25.15;99957.53;5347528;32;35256;-74
2022/06/25 06:20:05;;;;;;;;;;;;;;;30.50;27.44;99951.59;5371603;32;34542;-77
2022/06/25 06:23:07;;;;;;;;;;;;;;;30.40;27.39;99942.97;5358454;32;43187;-75
2022/06/25 06:26:09;;;;;;;;;;;;;;;30.65;26.76;99944.16;5376261;32;35433;-75
2022/06/25 06:29:11;;;;;;;;;;;;;;;28.46;29.45;99949.25;5361337;32;36545;-76
2022/06/25 06:32:13;;;;;;;;;;;;;;;31.63;25.58;99936.59;5376897;32;35227;-75
2022/06/25 06:35:16;;;;;;;;;;;;;;;32.97;23.67;99935.38;5364768;32;36340;-77
2022/06/25 06:38:18;;;;;;;;;;;;;;;34.11;22.27;99935.25;5365295;32;34647;-75
2022/06/25 06:41:20;;;;;;;;;;;;;;;32.30;24.48;99927.38;5372652;32;34932;-75
2022/06/25 06:44:21;;;;;;;;;;;;;;;33.40;23.23;99928.25;5361383;32;34811;-76
2022/06/25 06:47:23;;;;;;;;;;;;;;;32.41;24.33;99933.25;5376197;32;35391;-76
2022/06/25 06:50:25;;;;;;;;;;;;;;;30.38;27.08;99937.75;5360824;32;34279;-74
2022/06/25 06:53:27;;;;;;;;;;;;;;;33.04;23.77;99947.91;5372632;32;34274;-75
2022/06/25 06:56:29;;;;;;;;;;;;;;;32.07;25.20;99949.59;5360931;32;35189;-74
2022/06/25 06:59:31;;;;;;;;;;;;;;;31.83;25.69;99949.41;5366354;32;34679;-75
2022/06/25 07:02:33;;;;;;;;;;;;;;;31.83;24.66;99949.41;5368162;32;34682;-74
2022/06/25 07:05:35;;;;;;;;;;;;;;;31.53;25.36;99952.47;5358080;32;34366;-75
2022/06/25 07:08:37;;;;;;;;;;;;;;;33.49;23.06;99957.94;5375162;32;43355;-75
2022/06/25 07:11:39;;;;;;;;;;;;;;;32.39;23.82;99965.25;5358872;32;35184;-74
2022/06/25 07:14:41;;;;;;;;;;;;;;;33.54;22.39;99967.12;5354581;32;34133;-75
2022/06/25 07:17:43;;;;;;;;;;;;;;;32.03;24.58;99972.78;5349400;32;34768;-76
2022/06/25 07:20:45;;;;;;;;;;;;;;;33.03;23.30;99972.63;5359460;32;34923;-78
2022/06/25 07:23:53;;;;;;;;;;;;;;;33.27;22.94;99971.88;5374617;32;35650;-77
2022/06/25 07:26:55;;;;;;;;;;;;;;;32.05;24.20;99978.03;5332429;32;857311;-78
2022/06/25 07:29:56;;;;;;;;;;;;;;;32.73;23.54;99970.41;5376665;32;34713;-76
2022/06/25 07:32:58;;;;;;;;;;;;;;;31.31;25.24;99978.94;5360483;32;34784;-75
2022/06/25 07:36:00;;;;;;;;;;;;;;;31.96;24.64;99974.69;5374865;32;34726;-74
2022/06/25 07:39:03;;;;;;;;;;;;;;;33.10;23.16;99960.66;5361448;32;35168;-74
2022/06/25 07:42:05;;;;;;;;;;;;;;;33.58;22.53;99962.09;5358421;32;34685;-75
2022/06/25 07:45:07;;;;;;;;;;;;;;;31.62;25.15;99969.38;5376685;32;44263;-75
2022/06/25 07:48:09;;;;;;;;;;;;;;;34.84;21.29;99953.56;5356109;32;35064;-79
2022/06/25 07:54:52;;;;;;;;;;;;;;;33.23;23.23;99957.00;5337106;32;37066;-76
2022/06/25 07:57:54;;;;;;;;;;;;;;;36.87;19.41;99949.72;5340334;32;36793;-77
2022/06/25 08:00:56;;;;;;;;;;;;;;;35.42;21.08;99972.16;5367217;32;36641;-74
2022/06/25 08:03:58;;;;;;;;;;;;;;;33.52;23.45;99974.69;5358587;32;35689;-77
2022/06/25 08:07:00;;;;;;;;;;;;;;;33.80;23.68;99977.00;5370019;32;35044;-77
2022/06/25 08:10:02;;;;;;;;;;;;;;;35.74;20.93;99980.94;5358032;32;34725;-79
2022/06/25 08:13:04;;;;;;;;;;;;;;;36.19;20.66;99976.88;5370994;32;34165;-79
2022/06/25 08:16:09;;;;;;;;;;;;;;;33.47;24.48;99990.84;5332213;32;35485;-77
2022/06/25 08:19:11;;;;;;;;;;;;;;;35.18;21.96;99984.06;5359726;32;47874;-77
2022/06/25 08:22:13;;;;;;;;;;;;;;;37.13;20.53;99983.91;5372617;32;33532;-79
2022/06/25 08:25:15;;;;;;;;;;;;;;;34.34;24.04;99993.78;5363071;32;35562;-79
2022/06/25 08:28:18;;;;;;;;;;;;;;;32.75;26.44;99983.78;5364760;32;34342;-74
2022/06/25 08:31:20;;;;;;;;;;;;;;;32.45;26.94;100003.31;5357718;32;35516;-78
2022/06/25 08:34:22;;;;;;;;;;;;;;;34.93;24.10;99997.81;5374842;32;35327;-75
2022/06/25 08:37:24;;;;;;;;;;;;;;;34.42;24.71;100002.53;5360287;32;35060;-79
2022/06/25 08:40:26;;;;;;;;;;;;;;;34.32;25.31;99998.59;5360839;32;34366;-76
2022/06/25 08:43:28;;;;;;;;;;;;;;;34.57;25.20;100004.06;5373715;32;35337;-80
2022/06/25 08:46:30;;;;;;;;;;;;;;;35.22;24.79;100007.09;5357983;32;34836;-77
2022/06/25 08:49:33;;;;;;;;;;;;;;;34.05;26.80;100008.91;5358094;32;34448;-76
2022/06/25 08:52:35;;;;;;;;;;;;;;;35.26;25.22;100008.31;5357670;32;34719;-75
2022/06/25 08:55:38;;;;;;;;;;;;;;;36.10;24.24;100017.41;5372000;32;33692;-77
2022/06/25 08:58:44;;;;;;;;;;;;;;;34.56;27.10;100010.59;5359789;32;35515;-78
2022/06/25 09:01:46;;;;;;;;;;;;;;;34.02;28.08;100014.84;5359641;32;35534;-76
2022/06/25 09:04:48;;;;;;;;;;;;;;;34.20;27.88;100007.53;5380571;32;34806;-77
2022/06/25 09:07:53;;;;;;;;;;;;;;;34.61;27.43;100005.28;5360351;32;34994;-74
2022/06/25 09:10:55;;;;;;;;;;;;;;;33.06;30.57;100013.03;5377580;32;34102;-75
2022/06/25 09:14:16;;;;;;;;;;;;;;;32.79;31.37;100002.22;5351117;32;35125;-77
2022/06/25 09:17:18;;;;;;;;;;;;;;;33.04;31.26;100006.94;5353222;32;35183;-76
2022/06/25 09:20:20;;;;;;;;;;;;;;;32.63;32.35;100010.81;5369282;32;35412;-75
2022/06/25 09:23:22;;;;;;;;;;;;;;;31.52;34.23;100016.81;5361624;32;35606;-77
2022/06/25 09:26:24;;;;;;;;;;;;;;;32.82;32.33;100009.09;5367851;32;34986;-79
2022/06/25 09:29:35;;;;;;;;;;;;;;;34.95;28.74;100012.91;5360343;32;35002;-77
2022/06/25 09:32:50;;;;;;;;;;;;;;;34.17;29.69;100012.59;5370462;32;43433;-75
2022/06/25 09:35:52;;;;;;;;;;;;;;;34.27;29.97;100009.38;5362843;32;35375;-78
2022/06/25 09:38:54;;;;;;;;;;;;;;;35.84;27.34;99985.84;5359769;32;34981;-75
2022/06/25 09:41:57;;;;;;;;;;;;;;;34.53;29.28;100005.59;5375803;32;35129;-79
2022/06/25 09:45:00;;;;;;;;;;;;;;;34.32;29.70;99996.72;5363118;32;34440;-79
2022/06/25 09:48:03;;;;;;;;;;;;;;;34.99;28.92;100000.47;5375594;32;35318;-77
2022/06/25 09:51:09;;;;;;;;;;;;;;;34.18;29.96;100006.09;5361441;32;35181;-75
2022/06/25 09:54:11;;;;;;;;;;;;;;;35.24;28.04;100005.00;5370148;32;46187;-75
2022/06/25 09:57:13;;;;;;;;;;;;;;;34.52;29.26;100003.91;5367980;32;37819;-78
2022/06/25 10:00:16;;;;;;;;;;;;;;;36.40;26.14;100003.69;5359786;32;35752;-74
2022/06/25 10:03:18;;;;;;;;;;;;;;;35.01;28.51;100001.06;5377390;32;34725;-77
2022/06/25 10:06:21;;;;;;;;;;;;;;;33.92;29.95;99991.63;5361270;32;36199;-78
2022/06/25 10:09:24;;;;;;;;;;;;;;;34.17;29.69;99998.97;5377778;32;35718;-78
2022/06/25 10:12:26;;;;;;;;;;;;;;;34.52;29.43;100001.16;5356935;32;36812;-76
2022/06/25 10:15:28;;;;;;;;;;;;;;;35.25;28.18;99995.72;5337830;32;34981;-80
2022/06/25 10:18:30;;;;;;;;;;;;;;;34.27;29.74;99993.84;5370552;32;36804;-78
2022/06/25 10:21:32;;;;;;;;;;;;;;;33.74;30.81;99987.94;5357618;32;35558;-75
2022/06/25 10:24:34;;;;;;;;;;;;;;;36.76;26.37;99988.03;5377944;32;34433;-78
2022/06/25 10:27:45;;;;;;;;;;;;;;;32.86;31.79;99985.84;5358860;32;35198;-75
2022/06/25 10:30:49;;;;;;;;;;;;;;;34.65;29.14;99976.47;5374773;32;35422;-76
2022/06/25 10:33:52;;;;;;;;;;;;;;;33.18;31.63;99978.63;5362998;32;35634;-74
2022/06/25 10:36:57;;;;;;;;;;;;;;;30.96;35.47;99983.56;5361438;32;35047;-77
2022/06/25 10:39:59;;;;;;;;;;;;;;;32.94;32.39;99976.66;5376742;32;37269;-78
2022/06/25 10:43:01;;;;;;;;;;;;;;;34.25;29.90;99979.56;5359152;32;36095;-74
2022/06/25 10:46:22;;;;;;;;;;;;;;;31.41;34.52;99981.25;5375192;32;34446;-75
2022/06/25 10:49:30;;;;;;;;;;;;;;;33.12;31.39;99968.59;5359821;32;35162;-76
2022/06/25 10:52:32;;;;;;;;;;;;;;;34.93;28.43;99959.59;5366552;32;34679;-77
2022/06/25 10:55:35;;;;;;;;;;;;;;;32.48;32.54;99959.38;5368833;32;34376;-78
2022/06/25 10:58:44;;;;;;;;;;;;;;;32.10;33.06;99967.34;5358859;32;44762;-76
2022/06/25 11:01:45;;;;;;;;;;;;;;;32.81;31.64;99959.28;5375357;32;34326;-80
2022/06/25 11:04:49;;;;;;;;;;;;;;;33.73;30.33;99965.31;5359588;32;35142;-77
2022/06/25 11:07:51;;;;;;;;;;;;;;;32.78;31.82;99961.59;5374775;32;35483;-78
2022/06/25 11:10:53;;;;;;;;;;;;;;;35.21;27.99;99948.09;5361195;32;35192;-79
2022/06/25 11:13:56;;;;;;;;;;;;;;;35.03;28.02;99953.56;5357292;32;33930;-75
2022/06/25 11:17:05;;;;;;;;;;;;;;;35.45;27.06;99951.75;5353175;32;36515;-78
2022/06/25 11:20:12;;;;;;;;;;;;;;;33.92;29.22;99956.19;5357793;32;44854;-78
2022/06/25 11:23:14;;;;;;;;;;;;;;;36.58;25.49;99953.44;5375004;32;34373;-78
2022/06/25 11:29:47;;;;;;;;;;;;;;;34.18;28.92;99955.09;5367625;32;44962;-75
2022/06/25 11:32:49;;;;;;;;;;;;;;;34.54;28.04;99949.97;5370393;32;35983;-77
2022/06/25 11:35:51;;;;;;;;;;;;;;;34.34;28.44;99958.31;5360931;32;34922;-76
2022/06/25 11:38:53;;;;;;;;;;;;;;;35.21;27.22;99957.09;5376810;32;34533;-80
2022/06/25 11:41:55;;;;;;;;;;;;;;;36.87;24.65;99962.56;5358152;32;34793;-76
2022/06/25 11:44:57;;;;;;;;;;;;;;;35.49;26.70;99956.53;5377441;32;34738;-74
2022/06/25 11:48:03;;;;;;;;;;;;;;;35.94;26.06;99958.81;5358081;32;32620;-76
2022/06/25 11:51:05;;;;;;;;;;;;;;;35.93;25.65;99962.56;5361933;32;35195;-75
2022/06/25 11:54:07;;;;;;;;;;;;;;;37.12;23.99;99951.28;5373648;32;44423;-78
2022/06/25 11:57:15;;;;;;;;;;;;;;;37.22;23.92;99950.63;5359709;32;35341;-75
2022/06/25 12:00:17;;;;;;;;;;;;;;;33.09;29.91;99952.69;5375532;32;34363;-76
2022/06/25 12:03:22;;;;;;;;;;;;;;;33.27;29.44;99958.25;5361090;32;35431;-77
2022/06/25 12:06:24;;;;;;;;;;;;;;;32.25;31.03;99957.09;5375519;32;34914;-76
2022/06/25 12:09:26;;;;;;;;;;;;;;;33.09;29.77;99944.53;5362577;32;35627;-76
2022/06/25 12:12:28;;;;;;;;;;;;;;;31.87;31.49;99937.03;5357503;32;34606;-77
2022/06/25 12:15:30;;;;;;;;;;;;;;;31.33;32.76;99943.44;5348294;32;34414;-76
2022/06/25 12:18:39;;;;;;;;;;;;;;;32.01;31.21;99945.00;5358840;32;35208;-76
2022/06/25 12:21:41;;;;;;;;;;;;;;;30.41;33.96;99933.84;5371067;32;47915;-78
2022/06/25 12:24:45;;;;;;;;;;;;;;;31.14;33.16;99932.28;5358177;32;34786;-75
2022/06/25 12:27:48;;;;;;;;;;;;;;;31.57;32.85;99932.00;5371830;32;35446;-75
2022/06/25 12:30:50;;;;;;;;;;;;;;;30.77;33.19;99920.06;5362414;32;34604;-75
2022/06/25 12:33:52;;;;;;;;;;;;;;;30.83;32.94;99913.81;5359935;32;34640;-76
2022/06/25 12:36:54;;;;;;;;;;;;;;;30.26;33.97;99911.41;5379117;32;34914;-78
2022/06/25 12:39:59;;;;;;;;;;;;;;;30.89;33.31;99907.59;5365146;32;34645;-75
2022/06/25 12:43:01;;;;;;;;;;;;;;;31.32;32.27;99917.34;5380658;32;35027;-77
2022/06/25 12:46:07;;;;;;;;;;;;;;;30.84;33.45;99915.47;5364284;32;35735;-78
2022/06/25 12:49:11;;;;;;;;;;;;;;;31.69;32.07;99914.03;5371182;32;45114;-75
2022/06/25 12:52:34;;;;;;;;;;;;;;;30.76;32.98;99918.38;5375351;32;34924;-77
2022/06/25 12:55:37;;;;;;;;;;;;;;;30.31;33.58;99919.78;5366399;32;43840;-79
2022/06/25 12:58:40;;;;;;;;;;;;;;;30.80;32.91;99919.66;5374150;32;34942;-78
2022/06/25 13:01:42;;;;;;;;;;;;;;;30.66;33.03;99916.03;5363889;32;35624;-80
2022/06/25 13:04:45;;;;;;;;;;;;;;;30.92;32.78;99920.75;5380992;32;35552;-78
2022/06/25 13:07:47;;;;;;;;;;;;;;;30.22;33.59;99921.00;5365758;32;35734;-76
2022/06/25 13:10:49;;;;;;;;;;;;;;;30.91;32.48;99920.94;5365627;32;35268;-76
2022/06/25 13:13:51;;;;;;;;;;;;;;;30.67;32.52;99915.03;5371976;32;35211;-76
2022/06/25 13:16:53;;;;;;;;;;;;;;;29.90;33.57;99920.53;5343086;32;35750;-74
2022/06/25 13:19:55;;;;;;;;;;;;;;;29.85;34.03;99909.44;5380478;32;35534;-79
2022/06/25 13:22:57;;;;;;;;;;;;;;;30.77;32.89;99914.63;5362021;32;34502;-77
2022/06/25 13:25:59;;;;;;;;;;;;;;;30.53;32.94;99896.13;5379175;32;35374;-75
2022/06/25 13:29:01;;;;;;;;;;;;;;;29.80;34.23;99914.59;5365300;32;35982;-74
2022/06/25 13:32:04;;;;;;;;;;;;;;;30.99;32.56;99905.34;5359695;32;34577;-77
2022/06/25 13:35:06;;;;;;;;;;;;;;;31.59;31.59;99916.31;5381946;32;34733;-77
2022/06/25 13:38:08;;;;;;;;;;;;;;;31.33;31.74;99908.97;5363381;32;44356;-77
2022/06/25 13:41:10;;;;;;;;;;;;;;;29.98;33.94;99906.00;5377597;32;35254;-77
2022/06/25 13:44:12;;;;;;;;;;;;;;;29.81;34.24;99908.13;5364560;32;35006;-75
2022/06/25 13:47:19;;;;;;;;;;;;;;;30.25;33.42;99916.00;5372828;32;33206;-79
2022/06/25 13:50:21;;;;;;;;;;;;;;;30.23;33.73;99898.28;5365518;32;35460;-75
2022/06/25 13:53:23;;;;;;;;;;;;;;;29.70;33.79;99917.66;5363431;32;35448;-77
2022/06/25 13:56:25;;;;;;;;;;;;;;;30.81;32.30;99899.63;5376472;32;34270;-75
2022/06/25 13:59:26;;;;;;;;;;;;;;;31.14;32.03;99904.31;5360995;32;34952;-79
2022/06/25 14:02:28;;;;;;;;;;;;;;;30.37;33.33;99891.88;5377415;32;34331;-76
2022/06/25 14:05:30;;;;;;;;;;;;;;;29.92;33.84;99894.06;5360386;32;35356;-78
2022/06/25 14:08:32;;;;;;;;;;;;;;;30.24;33.39;99898.06;5373072;32;34822;-74
2022/06/25 14:11:34;;;;;;;;;;;;;;;30.06;33.74;99900.41;5365429;32;34935;-75
2022/06/25 14:14:37;;;;;;;;;;;;;;;30.61;33.04;99898.69;5344785;32;34337;-75
2022/06/25 14:17:39;;;;;;;;;;;;;;;30.78;32.34;99910.03;5364939;32;46113;-77
2022/06/25 14:20:41;;;;;;;;;;;;;;;31.30;31.21;99919.41;5352791;32;35993;-75
2022/06/25 14:23:43;;;;;;;;;;;;;;;30.48;32.47;99913.00;5376979;32;35539;-77
2022/06/25 14:26:45;;;;;;;;;;;;;;;30.99;31.82;99928.91;5359929;32;34807;-76
2022/06/25 14:29:47;;;;;;;;;;;;;;;31.78;30.32;99942.69;5370491;32;34254;-74
2022/06/25 14:32:49;;;;;;;;;;;;;;;30.64;32.48;99945.22;5369191;32;35378;-78
2022/06/25 14:42:34;;;;;;;;;;;;;;;30.26;33.52;99971.03;5359741;32;34977;-75
2022/06/25 14:45:36;;;;;;;;;;;;;;;31.10;31.98;99974.44;5374230;32;34921;-76
2022/06/25 14:48:38;;;;;;;;;;;;;;;29.68;34.48;99972.00;5363874;32;44583;-77
2022/06/25 14:51:41;;;;;;;;;;;;;;;30.04;34.04;99973.78;5358583;32;35716;-77
2022/06/25 14:54:43;;;;;;;;;;;;;;;30.19;34.15;99979.97;5378070;32;35481;-77
2022/06/25 14:57:45;;;;;;;;;;;;;;;30.00;34.24;99983.31;5361459;32;35266;-75
2022/06/25 15:00:47;;;;;;;;;;;;;;;29.76;34.53;99992.72;5376387;32;36277;-77
2022/06/25 15:03:49;;;;;;;;;;;;;;;29.29;35.18;99990.50;5360271;32;35689;-78
2022/06/25 15:06:51;;;;;;;;;;;;;;;29.62;34.66;99986.31;5360380;32;34757;-79
2022/06/25 15:09:53;;;;;;;;;;;;;;;30.70;32.31;99987.00;5363821;32;35933;-76
2022/06/25 15:12:56;;;;;;;;;;;;;;;29.65;34.54;99998.63;5359606;32;34420;-74
2022/06/25 15:15:58;;;;;;;;;;;;;;;29.85;33.05;100034.03;5346592;32;35069;-77
2022/06/25 15:19:01;;;;;;;;;;;;;;;30.04;28.23;100049.66;5359673;32;35259;-78
2022/06/25 15:22:06;;;;;;;;;;;;;;;28.60;30.49;100055.72;5374037;32;34694;-76
2022/06/25 15:25:08;;;;;;;;;;;;;;;28.85;30.21;100042.75;5359447;32;44066;-75
2022/06/25 15:28:10;;;;;;;;;;;;;;;27.68;32.24;100044.09;5366538;32;35433;-76
2022/06/25 15:31:12;;;;;;;;;;;;;;;27.95;31.68;100056.25;5366083;32;36568;-74
2022/06/25 15:34:14;;;;;;;;;;;;;;;27.96;31.18;100068.75;5359436;32;35273;-78
2022/06/25 15:37:16;;;;;;;;;;;;;;;27.86;31.08;100085.19;5375715;32;35071;-78
2022/06/25 15:40:18;;;;;;;;;;;;;;;27.15;31.97;100097.81;5357602;32;34894;-77
2022/06/25 15:43:21;;;;;;;;;;;;;;;27.23;31.62;100088.84;5374561;32;35448;-77
2022/06/25 15:46:23;;;;;;;;;;;;;;;26.89;32.61;100091.81;5355974;32;35067;-78
2022/06/25 15:49:25;;;;;;;;;;;;;;;26.41;38.46;100104.34;5365143;32;34827;-75
2022/06/25 15:52:27;;;;;;;;;;;;;;;25.66;45.28;100105.19;5370278;32;34742;-76
2022/06/25 15:55:29;;;;;;;;;;;;;;;25.55;45.82;100108.19;5359249;32;36423;-76
2022/06/25 15:59:27;;;;;;;;;;;;;;;25.53;46.61;100103.97;5377118;32;34907;-77
2022/06/25 16:01:53;;;;;;;;;;;;;;;25.49;48.15;100102.63;5361081;32;35200;-77
2022/06/25 16:04:55;;;;;;;;;;;;;;;25.02;46.40;100109.28;5374794;32;34638;-77
2022/06/25 16:07:57;;;;;;;;;;;;;;;25.70;47.25;100111.13;5359166;32;34343;-77
2022/06/25 16:11:30;;;;;;;;;;;;;;;25.52;50.02;100105.00;5357372;32;34554;-77
2022/06/25 16:14:21;;;;;;;;;;;;;;;26.36;46.71;100077.03;5360212;32;35327;-77